sensor_id;sensor_type;location;lat;lon;timestamp;pressure;altitude;pressure_sealevel;temperature;humidity
23446;BME280;11895;48.738;9.320;2023-04-21T00:01:36;98458.84;;;8.52;100.00
23446;BME280;11895;48.738;9.320;2023-04-21T00:04:05;98455.28;;;8.51;100.00
23446;BME280;11895;48.738;9.320;2023-04-21T00:06:33;98458.28;;;8.43;100.00
23446;BME280;11895;48.738;9.320;2023-04-21T00:09:01;98458.38;;;8.20;100.00
23446;BME280;11895;48.738;9.320;2023-04-21T00:11:28;98456.59;;;8.41;100.00
23446;BME280;11895;48.738;9.320;2023-04-21T00:13:56;98455.88;;;8.37;100.00
23446;BME280;11895;48.738;9.320;2023-04-21T00:16:24;98456.69;;;8.39;100.00
23446;BME280;11895;48.738;9.320;2023-04-21T00:18:51;98445.50;;;8.28;100.00
23446;BME280;11895;48.738;9.320;2023-04-21T00:21:19;98449.53;;;8.18;100.00
23446;BME280;11895;48.738;9.320;2023-04-21T00:23:47;98443.41;;;8.14;100.00
23446;BME280;11895;48.738;9.320;2023-04-21T00:26:16;98451.25;;;8.19;100.00
23446;BME280;11895;48.738;9.320;2023-04-21T00:28:45;98445.09;;;7.75;100.00
23446;BME280;11895;48.738;9.320;2023-04-21T00:31:12;98448.03;;;7.23;100.00
23446;BME280;11895;48.738;9.320;2023-04-21T00:33:48;98433.97;;;7.62;100.00
23446;BME280;11895;48.738;9.320;2023-04-21T00:36:42;98437.75;;;7.78;100.00
23446;BME280;11895;48.738;9.320;2023-04-21T00:39:14;98441.56;;;7.94;100.00
23446;BME280;11895;48.738;9.320;2023-04-21T00:41:42;98436.06;;;7.97;100.00
23446;BME280;11895;48.738;9.320;2023-04-21T00:44:10;98441.19;;;8.04;100.00
23446;BME280;11895;48.738;9.320;2023-04-21T00:46:38;98436.63;;;8.06;100.00
23446;BME280;11895;48.738;9.320;2023-04-21T00:49:07;98430.19;;;8.10;100.00
23446;BME280;11895;48.738;9.320;2023-04-21T00:51:35;98426.44;;;8.14;100.00
23446;BME280;11895;48.738;9.320;2023-04-21T00:54:06;98423.41;;;8.21;100.00
23446;BME280;11895;48.738;9.320;2023-04-21T00:56:36;98420.22;;;8.13;100.00
23446;BME280;11895;48.738;9.320;2023-04-21T00:59:04;98423.38;;;8.03;100.00
23446;BME280;11895;48.738;9.320;2023-04-21T01:01:32;98417.72;;;8.09;100.00
23446;BME280;11895;48.738;9.320;2023-04-21T01:04:01;98417.44;;;8.15;100.00
23446;BME280;11895;48.738;9.320;2023-04-21T01:06:31;98418.31;;;8.15;100.00
23446;BME280;11895;48.738;9.320;2023-04-21T01:09:01;98413.97;;;8.13;100.00
23446;BME280;11895;48.738;9.320;2023-04-21T01:11:29;98414.38;;;8.04;100.00
23446;BME280;11895;48.738;9.320;2023-04-21T01:13:59;98410.75;;;8.05;100.00
23446;BME280;11895;48.738;9.320;2023-04-21T01:16:27;98409.94;;;8.03;100.00
23446;BME280;11895;48.738;9.320;2023-04-21T01:18:55;98403.75;;;8.01;100.00
23446;BME280;11895;48.738;9.320;2023-04-21T01:21:23;98394.09;;;7.96;100.00
23446;BME280;11895;48.738;9.320;2023-04-21T01:23:51;98387.94;;;7.94;100.00
23446;BME280;11895;48.738;9.320;2023-04-21T01:26:20;98386.59;;;7.84;100.00
23446;BME280;11895;48.738;9.320;2023-04-21T01:28:49;98398.25;;;7.83;100.00
23446;BME280;11895;48.738;9.320;2023-04-21T01:31:17;98394.88;;;7.78;100.00
23446;BME280;11895;48.738;9.320;2023-04-21T01:33:45;98402.31;;;7.71;100.00
23446;BME280;11895;48.738;9.320;2023-04-21T01:36:12;98403.44;;;7.66;100.00
23446;BME280;11895;48.738;9.320;2023-04-21T01:38:40;98411.06;;;7.55;100.00
23446;BME280;11895;48.738;9.320;2023-04-21T01:41:09;98406.59;;;7.54;100.00
23446;BME280;11895;48.738;9.320;2023-04-21T01:43:38;98404.00;;;7.52;100.00
23446;BME280;11895;48.738;9.320;2023-04-21T01:46:07;98405.81;;;7.52;100.00
23446;BME280;11895;48.738;9.320;2023-04-21T01:48:37;98406.69;;;7.52;100.00
23446;BME280;11895;48.738;9.320;2023-04-21T01:51:06;98410.47;;;7.46;100.00
23446;BME280;11895;48.738;9.320;2023-04-21T01:53:34;98407.19;;;7.40;100.00
23446;BME280;11895;48.738;9.320;2023-04-21T01:56:02;98413.53;;;7.37;100.00
23446;BME280;11895;48.738;9.320;2023-04-21T01:58:30;98412.59;;;7.38;100.00
23446;BME280;11895;48.738;9.320;2023-04-21T02:00:58;98406.53;;;7.33;100.00
23446;BME280;11895;48.738;9.320;2023-04-21T02:03:26;98418.31;;;7.29;100.00
23446;BME280;11895;48.738;9.320;2023-04-21T02:05:54;98416.94;;;7.19;100.00
23446;BME280;11895;48.738;9.320;2023-04-21T02:08:22;98409.66;;;7.22;100.00
23446;BME280;11895;48.738;9.320;2023-04-21T02:10:50;98408.28;;;7.12;100.00
23446;BME280;11895;48.738;9.320;2023-04-21T02:13:17;98409.16;;;7.13;100.00
23446;BME280;11895;48.738;9.320;2023-04-21T02:15:45;98403.91;;;7.10;100.00
23446;BME280;11895;48.738;9.320;2023-04-21T02:18:13;98407.63;;;7.06;100.00
23446;BME280;11895;48.738;9.320;2023-04-21T02:20:41;98400.66;;;7.02;100.00
23446;BME280;11895;48.738;9.320;2023-04-21T02:23:09;98411.56;;;6.97;100.00
23446;BME280;11895;48.738;9.320;2023-04-21T02:25:36;98405.38;;;6.95;100.00
23446;BME280;11895;48.738;9.320;2023-04-21T02:28:04;98410.00;;;6.91;100.00
23446;BME280;11895;48.738;9.320;2023-04-21T02:30:33;98410.09;;;6.88;100.00
23446;BME280;11895;48.738;9.320;2023-04-21T02:33:01;98408.56;;;6.81;100.00
23446;BME280;11895;48.738;9.320;2023-04-21T02:35:29;98418.13;;;6.65;100.00
23446;BME280;11895;48.738;9.320;2023-04-21T02:37:57;98425.34;;;6.63;100.00
23446;BME280;11895;48.738;9.320;2023-04-21T02:40:25;98417.25;;;6.64;100.00
23446;BME280;11895;48.738;9.320;2023-04-21T02:42:53;98418.22;;;6.62;100.00
23446;BME280;11895;48.738;9.320;2023-04-21T02:45:21;98417.41;;;6.60;100.00
23446;BME280;11895;48.738;9.320;2023-04-21T02:47:50;98427.97;;;6.39;100.00
23446;BME280;11895;48.738;9.320;2023-04-21T02:50:18;98424.44;;;6.39;100.00
23446;BME280;11895;48.738;9.320;2023-04-21T02:52:45;98430.25;;;6.25;100.00
23446;BME280;11895;48.738;9.320;2023-04-21T02:55:13;98432.41;;;6.14;100.00
23446;BME280;11895;48.738;9.320;2023-04-21T02:57:41;98426.13;;;5.88;100.00
23446;BME280;11895;48.738;9.320;2023-04-21T03:00:09;98417.25;;;5.61;100.00
23446;BME280;11895;48.738;9.320;2023-04-21T03:02:39;98414.63;;;5.60;100.00
23446;BME280;11895;48.738;9.320;2023-04-21T03:05:08;98405.72;;;5.59;100.00
23446;BME280;11895;48.738;9.320;2023-04-21T03:07:36;98408.97;;;5.69;100.00
23446;BME280;11895;48.738;9.320;2023-04-21T03:10:05;98410.53;;;5.76;100.00
23446;BME280;11895;48.738;9.320;2023-04-21T03:12:33;98415.25;;;5.95;100.00
23446;BME280;11895;48.738;9.320;2023-04-21T03:15:02;98412.03;;;6.11;100.00
23446;BME280;11895;48.738;9.320;2023-04-21T03:17:30;98407.16;;;6.23;100.00
23446;BME280;11895;48.738;9.320;2023-04-21T03:19:59;98402.41;;;6.31;100.00
23446;BME280;11895;48.738;9.320;2023-04-21T03:22:27;98392.50;;;6.34;100.00
23446;BME280;11895;48.738;9.320;2023-04-21T03:24:55;98393.22;;;6.38;100.00
23446;BME280;11895;48.738;9.320;2023-04-21T03:27:22;98399.69;;;6.32;100.00
23446;BME280;11895;48.738;9.320;2023-04-21T03:29:50;98399.81;;;6.29;100.00
23446;BME280;11895;48.738;9.320;2023-04-21T03:32:18;98407.00;;;6.27;100.00
23446;BME280;11895;48.738;9.320;2023-04-21T03:34:46;98412.25;;;6.30;100.00
23446;BME280;11895;48.738;9.320;2023-04-21T03:37:18;98401.78;;;6.24;100.00
23446;BME280;11895;48.738;9.320;2023-04-21T03:39:45;98400.78;;;6.27;100.00
23446;BME280;11895;48.738;9.320;2023-04-21T03:42:13;98407.78;;;6.31;100.00
23446;BME280;11895;48.738;9.320;2023-04-21T03:44:41;98413.34;;;6.00;100.00
23446;BME280;11895;48.738;9.320;2023-04-21T03:47:09;98405.13;;;6.04;100.00
23446;BME280;11895;48.738;9.320;2023-04-21T03:49:36;98416.50;;;6.11;100.00
23446;BME280;11895;48.738;9.320;2023-04-21T03:52:04;98417.69;;;6.02;100.00
23446;BME280;11895;48.738;9.320;2023-04-21T03:54:32;98416.81;;;6.02;100.00
23446;BME280;11895;48.738;9.320;2023-04-21T03:56:59;98425.22;;;5.89;100.00
23446;BME280;11895;48.738;9.320;2023-04-21T03:59:27;98428.47;;;5.99;100.00
23446;BME280;11895;48.738;9.320;2023-04-21T04:01:55;98426.56;;;6.03;100.00
23446;BME280;11895;48.738;9.320;2023-04-21T04:04:23;98429.38;;;6.00;100.00
23446;BME280;11895;48.738;9.320;2023-04-21T04:06:51;98431.00;;;6.04;100.00
23446;BME280;11895;48.738;9.320;2023-04-21T04:09:19;98434.22;;;6.13;100.00
23446;BME280;11895;48.738;9.320;2023-04-21T04:11:47;98421.22;;;6.03;100.00
23446;BME280;11895;48.738;9.320;2023-04-21T04:14:14;98425.66;;;6.04;100.00
23446;BME280;11895;48.738;9.320;2023-04-21T04:16:42;98430.97;;;6.05;100.00
23446;BME280;11895;48.738;9.320;2023-04-21T04:19:10;98433.78;;;6.01;100.00
23446;BME280;11895;48.738;9.320;2023-04-21T04:21:38;98435.97;;;5.88;100.00
23446;BME280;11895;48.738;9.320;2023-04-21T04:24:05;98440.25;;;5.93;100.00
23446;BME280;11895;48.738;9.320;2023-04-21T04:26:39;98445.06;;;6.09;100.00
23446;BME280;11895;48.738;9.320;2023-04-21T04:29:07;98440.03;;;5.73;100.00
23446;BME280;11895;48.738;9.320;2023-04-21T04:31:36;98425.56;;;6.07;100.00
23446;BME280;11895;48.738;9.320;2023-04-21T04:34:04;98425.19;;;5.91;100.00
23446;BME280;11895;48.738;9.320;2023-04-21T04:36:38;98433.66;;;6.30;100.00
23446;BME280;11895;48.738;9.320;2023-04-21T04:39:06;98438.22;;;6.52;100.00
23446;BME280;11895;48.738;9.320;2023-04-21T04:41:36;98428.59;;;6.71;100.00
23446;BME280;11895;48.738;9.320;2023-04-21T04:44:05;98436.41;;;6.77;100.00
23446;BME280;11895;48.738;9.320;2023-04-21T04:46:32;98441.06;;;6.72;100.00
23446;BME280;11895;48.738;9.320;2023-04-21T04:49:01;98436.03;;;6.86;100.00
23446;BME280;11895;48.738;9.320;2023-04-21T04:51:29;98444.06;;;7.10;100.00
23446;BME280;11895;48.738;9.320;2023-04-21T04:54:04;98441.03;;;7.19;100.00
23446;BME280;11895;48.738;9.320;2023-04-21T04:56:32;98430.78;;;6.60;100.00
23446;BME280;11895;48.738;9.320;2023-04-21T04:59:02;98434.41;;;6.59;100.00
23446;BME280;11895;48.738;9.320;2023-04-21T05:01:30;98442.41;;;6.84;100.00
23446;BME280;11895;48.738;9.320;2023-04-21T05:03:58;98442.50;;;7.04;100.00
23446;BME280;11895;48.738;9.320;2023-04-21T05:06:26;98437.50;;;6.95;100.00
23446;BME280;11895;48.738;9.320;2023-04-21T05:08:54;98432.06;;;7.20;100.00
23446;BME280;11895;48.738;9.320;2023-04-21T05:11:22;98437.56;;;7.17;100.00
23446;BME280;11895;48.738;9.320;2023-04-21T05:13:50;98453.50;;;6.73;100.00
23446;BME280;11895;48.738;9.320;2023-04-21T05:16:17;98457.25;;;6.44;100.00
23446;BME280;11895;48.738;9.320;2023-04-21T05:18:45;98470.56;;;6.46;100.00
23446;BME280;11895;48.738;9.320;2023-04-21T05:21:13;98475.69;;;6.52;100.00
23446;BME280;11895;48.738;9.320;2023-04-21T05:23:40;98484.53;;;6.54;100.00
23446;BME280;11895;48.738;9.320;2023-04-21T05:26:08;98481.47;;;5.58;100.00
23446;BME280;11895;48.738;9.320;2023-04-21T05:28:35;98488.47;;;5.62;100.00
23446;BME280;11895;48.738;9.320;2023-04-21T05:31:03;98481.09;;;6.24;100.00
23446;BME280;11895;48.738;9.320;2023-04-21T05:33:32;98470.69;;;6.16;100.00
23446;BME280;11895;48.738;9.320;2023-04-21T05:35:59;98477.78;;;6.43;100.00
23446;BME280;11895;48.738;9.320;2023-04-21T05:38:27;98470.22;;;6.55;100.00
23446;BME280;11895;48.738;9.320;2023-04-21T05:40:55;98480.38;;;6.70;100.00
23446;BME280;11895;48.738;9.320;2023-04-21T05:43:23;98480.47;;;6.67;100.00
23446;BME280;11895;48.738;9.320;2023-04-21T05:45:50;98465.75;;;7.04;100.00
23446;BME280;11895;48.738;9.320;2023-04-21T05:48:24;98463.63;;;6.88;100.00
23446;BME280;11895;48.738;9.320;2023-04-21T05:50:51;98459.69;;;6.99;100.00
23446;BME280;11895;48.738;9.320;2023-04-21T05:53:19;98448.13;;;7.20;100.00
23446;BME280;11895;48.738;9.320;2023-04-21T05:55:47;98449.41;;;7.33;100.00
23446;BME280;11895;48.738;9.320;2023-04-21T05:58:14;98444.38;;;7.26;100.00
23446;BME280;11895;48.738;9.320;2023-04-21T06:00:42;98450.13;;;7.15;100.00
23446;BME280;11895;48.738;9.320;2023-04-21T06:03:10;98439.72;;;7.53;100.00
23446;BME280;11895;48.738;9.320;2023-04-21T06:05:37;98437.34;;;7.67;100.00
23446;BME280;11895;48.738;9.320;2023-04-21T06:08:06;98427.94;;;7.57;100.00
23446;BME280;11895;48.738;9.320;2023-04-21T06:10:33;98433.22;;;7.58;100.00
23446;BME280;11895;48.738;9.320;2023-04-21T06:13:01;98433.97;;;7.62;100.00
23446;BME280;11895;48.738;9.320;2023-04-21T06:15:29;98423.97;;;7.87;100.00
23446;BME280;11895;48.738;9.320;2023-04-21T06:17:57;98415.56;;;8.17;100.00
23446;BME280;11895;48.738;9.320;2023-04-21T06:20:27;98405.34;;;8.47;100.00
23446;BME280;11895;48.738;9.320;2023-04-21T06:23:19;98405.28;;;8.48;100.00
23446;BME280;11895;48.738;9.320;2023-04-21T06:26:02;98418.41;;;8.55;100.00
23446;BME280;11895;48.738;9.320;2023-04-21T06:28:35;98431.03;;;8.53;100.00
23446;BME280;11895;48.738;9.320;2023-04-21T06:31:04;98442.25;;;8.42;100.00
23446;BME280;11895;48.738;9.320;2023-04-21T06:33:35;98457.03;;;8.52;100.00
23446;BME280;11895;48.738;9.320;2023-04-21T06:36:04;98455.94;;;8.56;100.00
23446;BME280;11895;48.738;9.320;2023-04-21T06:38:32;98447.41;;;8.67;100.00
23446;BME280;11895;48.738;9.320;2023-04-21T06:41:00;98444.38;;;9.14;100.00
23446;BME280;11895;48.738;9.320;2023-04-21T06:53:41;98424.88;;;10.19;100.00
23446;BME280;11895;48.738;9.320;2023-04-21T07:03:00;98429.06;;;9.71;100.00
23446;BME280;11895;48.738;9.320;2023-04-21T07:12:17;98413.09;;;10.21;100.00
23446;BME280;11895;48.738;9.320;2023-04-21T07:18:09;98419.31;;;10.04;100.00
23446;BME280;11895;48.738;9.320;2023-04-21T07:24:05;98390.06;;;10.33;100.00
23446;BME280;11895;48.738;9.320;2023-04-21T07:36:50;98391.84;;;9.98;100.00
23446;BME280;11895;48.738;9.320;2023-04-21T07:42:43;98397.19;;;10.34;100.00
23446;BME280;11895;48.738;9.320;2023-04-21T07:45:11;98391.25;;;10.45;100.00
23446;BME280;11895;48.738;9.320;2023-04-21T07:47:39;98393.09;;;10.77;100.00
23446;BME280;11895;48.738;9.320;2023-04-21T07:50:08;98389.31;;;10.97;100.00
23446;BME280;11895;48.738;9.320;2023-04-21T07:52:36;98393.16;;;11.25;100.00
23446;BME280;11895;48.738;9.320;2023-04-21T07:55:04;98395.75;;;11.11;100.00
23446;BME280;11895;48.738;9.320;2023-04-21T07:57:33;98394.13;;;11.24;100.00
23446;BME280;11895;48.738;9.320;2023-04-21T08:00:06;98395.09;;;11.39;100.00
23446;BME280;11895;48.738;9.320;2023-04-21T08:02:39;98385.69;;;11.62;100.00
23446;BME280;11895;48.738;9.320;2023-04-21T08:05:08;98386.53;;;11.78;100.00
23446;BME280;11895;48.738;9.320;2023-04-21T08:07:36;98388.41;;;11.62;100.00
23446;BME280;11895;48.738;9.320;2023-04-21T08:10:05;98388.56;;;11.90;100.00
23446;BME280;11895;48.738;9.320;2023-04-21T08:12:34;98391.53;;;11.54;100.00
23446;BME280;11895;48.738;9.320;2023-04-21T08:15:02;98391.34;;;11.89;100.00
23446;BME280;11895;48.738;9.320;2023-04-21T08:17:34;98384.13;;;11.57;100.00
23446;BME280;11895;48.738;9.320;2023-04-21T08:20:02;98389.88;;;11.83;100.00
23446;BME280;11895;48.738;9.320;2023-04-21T08:22:30;98388.31;;;11.47;100.00
23446;BME280;11895;48.738;9.320;2023-04-21T08:24:58;98385.69;;;11.62;100.00
23446;BME280;11895;48.738;9.320;2023-04-21T08:27:27;98390.84;;;11.82;100.00
23446;BME280;11895;48.738;9.320;2023-04-21T08:29:55;98386.91;;;11.72;100.00
23446;BME280;11895;48.738;9.320;2023-04-21T08:32:23;98396.31;;;11.33;100.00
23446;BME280;11895;48.738;9.320;2023-04-21T08:34:53;98392.13;;;11.75;100.00
23446;BME280;11895;48.738;9.320;2023-04-21T08:37:21;98397.78;;;11.86;100.00
23446;BME280;11895;48.738;9.320;2023-04-21T08:39:52;98398.88;;;12.14;100.00
23446;BME280;11895;48.738;9.320;2023-04-21T08:42:20;98389.97;;;11.66;100.00
23446;BME280;11895;48.738;9.320;2023-04-21T08:44:48;98395.06;;;12.32;100.00
23446;BME280;11895;48.738;9.320;2023-04-21T08:47:16;98390.84;;;12.56;100.00
23446;BME280;11895;48.738;9.320;2023-04-21T08:49:49;98388.41;;;12.82;100.00
23446;BME280;11895;48.738;9.320;2023-04-21T08:52:18;98375.94;;;12.94;100.00
23446;BME280;11895;48.738;9.320;2023-04-21T08:54:47;98376.00;;;12.49;100.00
23446;BME280;11895;48.738;9.320;2023-04-21T08:57:18;98375.66;;;13.27;100.00
23446;BME280;11895;48.738;9.320;2023-04-21T08:59:46;98376.63;;;13.11;100.00
23446;BME280;11895;48.738;9.320;2023-04-21T09:02:15;98370.09;;;12.57;100.00
23446;BME280;11895;48.738;9.320;2023-04-21T09:04:47;98367.34;;;12.58;100.00
23446;BME280;11895;48.738;9.320;2023-04-21T09:07:32;98356.25;;;13.06;100.00
23446;BME280;11895;48.738;9.320;2023-04-21T09:10:03;98349.75;;;13.08;100.00
23446;BME280;11895;48.738;9.320;2023-04-21T09:12:32;98345.78;;;13.28;100.00
23446;BME280;11895;48.738;9.320;2023-04-21T09:15:04;98347.50;;;13.71;100.00
23446;BME280;11895;48.738;9.320;2023-04-21T09:17:32;98354.72;;;13.57;100.00
23446;BME280;11895;48.738;9.320;2023-04-21T09:22:43;98348.75;;;13.38;100.00
23446;BME280;11895;48.738;9.320;2023-04-21T09:25:14;98337.34;;;13.47;100.00
23446;BME280;11895;48.738;9.320;2023-04-21T09:27:44;98342.28;;;13.68;100.00
23446;BME280;11895;48.738;9.320;2023-04-21T09:30:14;98343.59;;;12.92;100.00
23446;BME280;11895;48.738;9.320;2023-04-21T09:32:45;98340.41;;;13.82;100.00
23446;BME280;11895;48.738;9.320;2023-04-21T09:35:13;98335.69;;;13.99;100.00
23446;BME280;11895;48.738;9.320;2023-04-21T09:37:43;98343.34;;;14.32;100.00
23446;BME280;11895;48.738;9.320;2023-04-21T09:40:16;98344.94;;;14.61;100.00
23446;BME280;11895;48.738;9.320;2023-04-21T09:42:45;98339.63;;;14.07;100.00
23446;BME280;11895;48.738;9.320;2023-04-21T09:45:13;98338.06;;;14.43;100.00
23446;BME280;11895;48.738;9.320;2023-04-21T09:47:49;98347.09;;;14.69;100.00
23446;BME280;11895;48.738;9.320;2023-04-21T09:50:21;98338.63;;;14.48;100.00
23446;BME280;11895;48.738;9.320;2023-04-21T09:53:14;98334.88;;;14.24;100.00
23446;BME280;11895;48.738;9.320;2023-04-21T09:55:47;98338.63;;;14.74;100.00
23446;BME280;11895;48.738;9.320;2023-04-21T09:58:20;98331.22;;;15.01;100.00
23446;BME280;11895;48.738;9.320;2023-04-21T10:00:50;98323.94;;;15.51;100.00
23446;BME280;11895;48.738;9.320;2023-04-21T10:03:21;98316.28;;;15.69;100.00
23446;BME280;11895;48.738;9.320;2023-04-21T10:05:54;98315.94;;;15.37;100.00
23446;BME280;11895;48.738;9.320;2023-04-21T10:08:22;98304.88;;;15.40;100.00
23446;BME280;11895;48.738;9.320;2023-04-21T10:10:50;98300.72;;;15.95;100.00
23446;BME280;11895;48.738;9.320;2023-04-21T10:13:19;98298.06;;;15.58;100.00
23446;BME280;11895;48.738;9.320;2023-04-21T10:15:48;98288.72;;;16.10;100.00
23446;BME280;11895;48.738;9.320;2023-04-21T10:18:22;98278.16;;;16.52;100.00
23446;BME280;11895;48.738;9.320;2023-04-21T10:20:51;98284.13;;;16.11;100.00
23446;BME280;11895;48.738;9.320;2023-04-21T10:26:12;98282.66;;;16.87;100.00
23446;BME280;11895;48.738;9.320;2023-04-21T10:31:30;98281.44;;;17.02;100.00
23446;BME280;11895;48.738;9.320;2023-04-21T10:36:48;98268.88;;;17.33;100.00
23446;BME280;11895;48.738;9.320;2023-04-21T10:42:42;98272.75;;;16.86;100.00
23446;BME280;11895;48.738;9.320;2023-04-21T11:04:49;98264.22;;;18.20;100.00
23446;BME280;11895;48.738;9.320;2023-04-21T11:07:19;98259.03;;;17.96;100.00
23446;BME280;11895;48.738;9.320;2023-04-21T11:29:29;98230.28;;;18.76;100.00
23446;BME280;11895;48.738;9.320;2023-04-21T11:38:47;98222.03;;;20.05;97.70
23446;BME280;11895;48.738;9.320;2023-04-21T11:48:21;98214.69;;;21.09;93.72
23446;BME280;11895;48.738;9.320;2023-04-21T11:57:47;98207.66;;;22.75;67.97
23446;BME280;11895;48.738;9.320;2023-04-21T12:07:06;98185.66;;;24.91;48.80
23446;BME280;11895;48.738;9.320;2023-04-21T12:12:58;98196.91;;;23.83;53.79
23446;BME280;11895;48.738;9.320;2023-04-21T12:18:56;98190.56;;;25.20;50.20
23446;BME280;11895;48.738;9.320;2023-04-21T12:24:52;98189.41;;;28.28;37.23
23446;BME280;11895;48.738;9.320;2023-04-21T12:34:13;98167.09;;;29.81;34.17
23446;BME280;11895;48.738;9.320;2023-04-21T12:36:41;98164.81;;;30.05;32.62
23446;BME280;11895;48.738;9.320;2023-04-21T12:45:59;98155.03;;;30.42;32.57
23446;BME280;11895;48.738;9.320;2023-04-21T12:48:32;98143.69;;;30.30;30.67
23446;BME280;11895;48.738;9.320;2023-04-21T12:51:01;98145.44;;;31.87;29.28
23446;BME280;11895;48.738;9.320;2023-04-21T12:53:28;98136.44;;;33.10;27.61
23446;BME280;11895;48.738;9.320;2023-04-21T12:55:57;98139.91;;;33.91;26.05
23446;BME280;11895;48.738;9.320;2023-04-21T12:58:32;98137.59;;;31.13;28.70
23446;BME280;11895;48.738;9.320;2023-04-21T13:01:00;98133.72;;;31.27;28.07
23446;BME280;11895;48.738;9.320;2023-04-21T13:03:28;98125.94;;;30.44;29.58
23446;BME280;11895;48.738;9.320;2023-04-21T13:05:56;98143.03;;;30.68;28.54
23446;BME280;11895;48.738;9.320;2023-04-21T13:08:25;98130.16;;;30.93;29.09
23446;BME280;11895;48.738;9.320;2023-04-21T13:10:52;98120.09;;;33.14;25.94
23446;BME280;11895;48.738;9.320;2023-04-21T13:13:21;98121.69;;;33.88;24.22
23446;BME280;11895;48.738;9.320;2023-04-21T13:15:49;98139.22;;;32.17;24.95
23446;BME280;11895;48.738;9.320;2023-04-21T13:18:17;98139.03;;;32.12;26.82
23446;BME280;11895;48.738;9.320;2023-04-21T13:20:45;98126.59;;;31.44;27.29
23446;BME280;11895;48.738;9.320;2023-04-21T13:23:13;98123.81;;;31.76;26.93
23446;BME280;11895;48.738;9.320;2023-04-21T13:25:41;98120.84;;;33.21;24.45
23446;BME280;11895;48.738;9.320;2023-04-21T13:28:11;98121.16;;;33.31;24.31
23446;BME280;11895;48.738;9.320;2023-04-21T13:30:43;98114.63;;;32.64;24.92
23446;BME280;11895;48.738;9.320;2023-04-21T13:33:11;98110.69;;;34.59;23.40
23446;BME280;11895;48.738;9.320;2023-04-21T13:35:39;98111.28;;;35.60;22.29
23446;BME280;11895;48.738;9.320;2023-04-21T13:38:07;98107.50;;;35.83;22.41
23446;BME280;11895;48.738;9.320;2023-04-21T13:40:35;98109.59;;;36.49;22.10
23446;BME280;11895;48.738;9.320;2023-04-21T13:43:03;98102.72;;;37.13;20.77
23446;BME280;11895;48.738;9.320;2023-04-21T13:45:30;98098.88;;;37.63;19.13
23446;BME280;11895;48.738;9.320;2023-04-21T13:47:58;98096.41;;;36.50;20.54
23446;BME280;11895;48.738;9.320;2023-04-21T13:50:26;98102.53;;;34.57;22.31
23446;BME280;11895;48.738;9.320;2023-04-21T13:52:53;98104.75;;;35.42;22.07
23446;BME280;11895;48.738;9.320;2023-04-21T13:55:21;98101.72;;;36.46;21.54
23446;BME280;11895;48.738;9.320;2023-04-21T13:57:49;98110.06;;;36.29;20.76
23446;BME280;11895;48.738;9.320;2023-04-21T14:00:17;98103.38;;;37.64;20.19
23446;BME280;11895;48.738;9.320;2023-04-21T14:02:45;98107.81;;;38.36;19.51
23446;BME280;11895;48.738;9.320;2023-04-21T14:05:13;98099.19;;;39.27;18.92
23446;BME280;11895;48.738;9.320;2023-04-21T14:07:42;98090.91;;;37.11;20.82
23446;BME280;11895;48.738;9.320;2023-04-21T14:10:10;98090.44;;;34.10;22.65
23446;BME280;11895;48.738;9.320;2023-04-21T14:12:41;98083.72;;;33.69;23.92
23446;BME280;11895;48.738;9.320;2023-04-21T14:15:12;98081.97;;;35.39;22.60
23446;BME280;11895;48.738;9.320;2023-04-21T14:17:40;98067.94;;;34.28;23.29
23446;BME280;11895;48.738;9.320;2023-04-21T14:20:08;98077.31;;;35.56;22.41
23446;BME280;11895;48.738;9.320;2023-04-21T14:22:36;98075.94;;;36.49;21.25
23446;BME280;11895;48.738;9.320;2023-04-21T14:25:05;98076.38;;;34.51;22.37
23446;BME280;11895;48.738;9.320;2023-04-21T14:27:32;98064.41;;;32.64;25.18
23446;BME280;11895;48.738;9.320;2023-04-21T14:30:00;98056.78;;;34.28;24.34
23446;BME280;11895;48.738;9.320;2023-04-21T14:32:28;98055.53;;;36.54;21.82
23446;BME280;11895;48.738;9.320;2023-04-21T14:34:56;98048.38;;;34.98;23.14
23446;BME280;11895;48.738;9.320;2023-04-21T14:37:26;98042.44;;;34.71;23.82
23446;BME280;11895;48.738;9.320;2023-04-21T14:39:54;98039.88;;;36.24;22.10
23446;BME280;11895;48.738;9.320;2023-04-21T14:42:21;98043.25;;;35.47;22.78
23446;BME280;11895;48.738;9.320;2023-04-21T14:44:49;98039.44;;;34.49;22.82
23446;BME280;11895;48.738;9.320;2023-04-21T14:47:17;98044.13;;;35.93;23.15
23446;BME280;11895;48.738;9.320;2023-04-21T14:49:44;98044.44;;;35.80;22.53
23446;BME280;11895;48.738;9.320;2023-04-21T14:52:12;98037.94;;;34.82;24.39
23446;BME280;11895;48.738;9.320;2023-04-21T14:54:40;98039.03;;;36.58;22.25
23446;BME280;11895;48.738;9.320;2023-04-21T14:57:08;98040.25;;;36.45;22.80
23446;BME280;11895;48.738;9.320;2023-04-21T14:59:43;98032.56;;;34.92;23.67
23446;BME280;11895;48.738;9.320;2023-04-21T15:02:13;98032.69;;;35.66;23.52
23446;BME280;11895;48.738;9.320;2023-04-21T15:04:42;98027.69;;;32.48;25.36
23446;BME280;11895;48.738;9.320;2023-04-21T15:07:10;98023.66;;;32.81;26.12
23446;BME280;11895;48.738;9.320;2023-04-21T15:09:37;98023.91;;;31.23;27.21
23446;BME280;11895;48.738;9.320;2023-04-21T15:12:05;98027.63;;;31.80;28.30
23446;BME280;11895;48.738;9.320;2023-04-21T15:14:34;98024.00;;;31.10;28.48
23446;BME280;11895;48.738;9.320;2023-04-21T15:17:01;98016.75;;;29.58;31.03
23446;BME280;11895;48.738;9.320;2023-04-21T15:19:29;98015.69;;;29.72;30.34
23446;BME280;11895;48.738;9.320;2023-04-21T15:21:57;98002.91;;;29.64;31.30
23446;BME280;11895;48.738;9.320;2023-04-21T15:24:25;97999.44;;;29.36;31.27
23446;BME280;11895;48.738;9.320;2023-04-21T15:26:53;98003.09;;;29.83;31.45
23446;BME280;11895;48.738;9.320;2023-04-21T15:29:21;97999.16;;;31.15;28.88
23446;BME280;11895;48.738;9.320;2023-04-21T15:31:48;98000.59;;;32.56;27.60
23446;BME280;11895;48.738;9.320;2023-04-21T15:34:16;98016.22;;;32.75;26.85
23446;BME280;11895;48.738;9.320;2023-04-21T15:36:44;98007.06;;;32.68;27.28